createdAt,value
2022-08-17T04:00:29.065Z,22.20
2022-08-17T04:01:29.078Z,22.09
2022-08-17T04:02:29.020Z,22.14
2022-08-17T04:03:28.999Z,22.22
2022-08-17T04:04:28.993Z,22.21
2022-08-17T04:05:28.977Z,22.24
2022-08-17T04:06:28.965Z,22.09
2022-08-17T04:07:28.971Z,22.14
2022-08-17T04:08:28.944Z,22.05
2022-08-17T04:09:28.936Z,21.92
2022-08-17T04:10:28.921Z,21.92
2022-08-17T04:11:33.934Z,21.84
2022-08-17T04:12:28.908Z,21.91
2022-08-17T04:13:28.895Z,21.94
2022-08-17T04:14:28.882Z,22.00
2022-08-17T04:15:28.869Z,21.90
2022-08-17T04:16:28.855Z,22.09
2022-08-17T04:17:28.860Z,22.06
2022-08-17T04:18:28.833Z,22.02
2022-08-17T04:19:28.823Z,22.07
2022-08-17T04:20:28.812Z,21.99
2022-08-17T04:21:28.800Z,21.98
2022-08-17T04:22:34.448Z,21.82
2022-08-17T04:23:28.787Z,21.72
2022-08-17T04:24:28.766Z,21.61
2022-08-17T04:25:28.755Z,21.59
2022-08-17T04:26:52.981Z,21.52
2022-08-17T04:27:29.743Z,21.52
2022-08-17T04:28:28.721Z,21.40
2022-08-17T04:29:28.714Z,21.42
2022-08-17T04:30:29.705Z,21.42
2022-08-17T04:31:28.690Z,21.44
2022-08-17T04:33:03.665Z,21.49
2022-08-17T04:33:34.694Z,21.50
2022-08-17T04:34:28.660Z,21.43
2022-08-17T04:35:28.646Z,21.50
2022-08-17T04:36:28.639Z,21.53
2022-08-17T04:37:28.638Z,21.50
2022-08-17T04:38:28.611Z,21.43
2022-08-17T04:39:28.635Z,21.42
2022-08-17T04:40:28.589Z,21.46
2022-08-17T04:41:28.581Z,21.42
2022-08-17T04:42:28.567Z,21.42
2022-08-17T04:43:28.568Z,21.43
2022-08-17T04:44:37.648Z,21.47
2022-08-17T04:45:32.321Z,21.52
2022-08-17T04:46:28.522Z,21.52
2022-08-17T04:47:28.515Z,21.50
2022-08-17T04:48:35.695Z,21.53
2022-08-17T04:49:29.531Z,21.46
2022-08-17T04:50:28.479Z,21.44
2022-08-17T04:51:28.469Z,21.44
2022-08-17T04:52:29.875Z,21.40
2022-08-17T04:53:29.463Z,21.47
2022-08-17T04:54:28.438Z,21.40
2022-08-17T04:55:33.447Z,21.43
2022-08-17T04:56:28.418Z,21.49
2022-08-17T04:57:28.403Z,21.52
2022-08-17T04:58:28.403Z,21.47
2022-08-17T04:59:28.378Z,21.49
2022-08-17T05:00:28.369Z,21.46
2022-08-17T05:01:28.475Z,21.50
2022-08-17T05:02:28.362Z,21.52
2022-08-17T05:03:28.335Z,21.49
2022-08-17T05:04:34.396Z,21.47
2022-08-17T05:05:29.316Z,21.53
2022-08-17T05:06:33.324Z,21.54
2022-08-17T05:07:31.413Z,21.68
2022-08-17T05:08:28.280Z,21.61
2022-08-17T05:09:28.268Z,21.59
2022-08-17T05:10:28.259Z,21.50
2022-08-17T05:11:28.249Z,21.56
2022-08-17T05:12:28.247Z,21.52
2022-08-17T05:13:28.224Z,21.44
2022-08-17T05:14:32.835Z,21.42
2022-08-17T05:15:29.202Z,21.42
2022-08-17T05:16:28.191Z,21.46
2022-08-17T05:17:33.225Z,21.42
2022-08-17T05:18:28.170Z,21.31
2022-08-17T05:19:28.157Z,21.31
2022-08-17T05:20:28.153Z,21.29
2022-08-17T05:21:28.136Z,21.19
2022-08-17T05:22:28.126Z,21.19
2022-08-17T05:23:35.553Z,21.16
2022-08-17T05:24:38.330Z,21.17
2022-08-17T05:25:29.094Z,21.32
2022-08-17T05:26:28.791Z,21.24
2022-08-17T05:27:32.232Z,21.34
2022-08-17T05:28:34.095Z,21.27
2022-08-17T05:29:35.213Z,21.34
2022-08-17T05:30:29.037Z,21.42
2022-08-17T05:31:28.023Z,21.40
2022-08-17T05:32:37.951Z,21.32
2022-08-17T05:33:29.013Z,21.44
2022-08-17T05:34:27.993Z,21.38
2022-08-17T05:35:27.981Z,21.42
2022-08-17T05:36:41.984Z,21.43
2022-08-17T05:37:28.966Z,21.43
2022-08-17T05:38:27.958Z,21.44
2022-08-17T05:39:32.991Z,21.38
2022-08-17T05:40:27.926Z,21.44
2022-08-17T05:41:28.914Z,21.38
2022-08-17T05:42:27.904Z,21.37
2022-08-17T05:43:27.902Z,21.44
2022-08-17T05:44:27.896Z,21.50
2022-08-17T05:45:54.257Z,21.50
2022-08-17T05:46:28.860Z,21.62
2022-08-17T05:47:27.848Z,21.54
2022-08-17T05:48:35.677Z,21.61
2022-08-17T05:49:28.825Z,21.77
2022-08-17T05:50:32.837Z,21.75
2022-08-17T05:51:27.814Z,21.74
2022-08-17T05:52:27.793Z,21.77
2022-08-17T05:53:27.795Z,21.75
2022-08-17T05:54:27.819Z,21.80
2022-08-17T05:55:27.769Z,21.90
2022-08-17T05:56:30.419Z,21.80
2022-08-17T05:57:27.766Z,21.84
2022-08-17T05:58:27.735Z,21.83
2022-08-17T05:59:27.723Z,21.94
2022-08-17T06:00:30.694Z,21.90
2022-08-17T06:01:32.772Z,21.99
2022-08-17T06:02:27.694Z,21.91
2022-08-17T06:03:27.829Z,21.92
2022-08-17T06:04:27.666Z,21.86
2022-08-17T06:05:27.661Z,21.92
2022-08-17T06:06:31.196Z,21.96
2022-08-17T06:07:27.628Z,21.79
2022-08-17T06:08:27.690Z,21.72
2022-08-17T06:09:33.008Z,21.69
2022-08-17T06:10:28.670Z,21.72
2022-08-17T06:11:27.590Z,21.72
2022-08-17T06:12:32.600Z,21.80
2022-08-17T06:13:27.571Z,21.82
2022-08-17T06:14:27.552Z,21.77
2022-08-17T06:15:27.538Z,21.80
2022-08-17T06:16:34.091Z,21.72
2022-08-17T06:17:28.514Z,21.71
2022-08-17T06:18:27.527Z,21.68
2022-08-17T06:19:27.500Z,21.59
2022-08-17T06:20:27.575Z,21.62
2022-08-17T06:21:31.952Z,21.72
2022-08-17T06:22:27.480Z,21.67
2022-08-17T06:23:32.555Z,21.80
2022-08-17T06:24:27.477Z,21.82
2022-08-17T06:25:27.426Z,22.02
2022-08-17T06:26:27.584Z,22.03
2022-08-17T06:27:28.403Z,22.07
2022-08-17T06:28:27.422Z,22.10
2022-08-17T06:29:27.390Z,22.18
2022-08-17T06:30:27.498Z,22.06
2022-08-17T06:31:27.375Z,22.02
2022-08-17T06:32:27.350Z,21.99
2022-08-17T06:33:27.340Z,21.92
2022-08-17T06:34:32.360Z,21.91
2022-08-17T06:35:32.090Z,21.84
2022-08-17T06:36:28.313Z,21.74
2022-08-17T06:37:27.295Z,21.71
2022-08-17T06:38:36.965Z,21.62
2022-08-17T06:39:31.268Z,21.82
2022-08-17T06:40:27.328Z,21.79
2022-08-17T06:41:27.248Z,21.72
2022-08-17T06:43:02.927Z,21.71
2022-08-17T06:43:28.226Z,21.80
2022-08-17T06:44:49.804Z,21.83
2022-08-17T06:45:33.457Z,21.80
2022-08-17T06:46:27.212Z,21.77
2022-08-17T06:47:28.495Z,21.79
2022-08-17T06:48:27.176Z,21.74
2022-08-17T06:49:27.170Z,21.74
2022-08-17T06:50:27.287Z,21.68
2022-08-17T06:51:27.147Z,21.79
2022-08-17T06:52:46.007Z,21.74
2022-08-17T06:53:28.117Z,21.83
2022-08-17T06:54:27.116Z,21.84
2022-08-17T06:55:27.100Z,21.82
2022-08-17T06:56:53.263Z,21.82
2022-08-17T06:57:28.071Z,21.84
2022-08-17T06:58:29.822Z,21.86
2022-08-17T06:59:54.343Z,21.74
2022-08-17T07:00:28.128Z,21.68
2022-08-17T07:01:27.181Z,21.67
2022-08-17T07:02:29.506Z,21.67
2022-08-17T07:03:28.769Z,21.68
2022-08-17T07:04:27.430Z,21.68
2022-08-17T07:05:27.236Z,21.71
2022-08-17T07:06:27.248Z,21.68
2022-08-17T07:07:32.120Z,21.69
2022-08-17T07:08:30.576Z,21.65
2022-08-17T07:09:27.946Z,21.71
2022-08-17T07:10:26.935Z,21.71
2022-08-17T07:11:26.916Z,21.69
2022-08-17T07:12:26.907Z,21.65
2022-08-17T07:13:26.896Z,21.71
2022-08-17T07:14:26.894Z,21.75
2022-08-17T07:15:26.871Z,21.83
2022-08-17T07:16:26.863Z,21.82
2022-08-17T07:17:46.508Z,21.84
2022-08-17T07:18:32.861Z,21.91
2022-08-17T07:19:26.841Z,21.94
2022-08-17T07:20:26.817Z,21.91
2022-08-17T07:21:26.937Z,21.88
2022-08-17T07:22:26.794Z,21.83
2022-08-17T07:23:26.784Z,21.80
2022-08-17T07:24:30.109Z,21.75
2022-08-17T07:25:26.777Z,21.86
2022-08-17T07:26:26.749Z,21.77
2022-08-17T07:27:26.737Z,21.75
2022-08-17T07:28:26.731Z,21.67
2022-08-17T07:29:31.747Z,21.77
2022-08-17T07:30:26.711Z,21.84
2022-08-17T07:31:26.709Z,21.83
2022-08-17T07:32:26.682Z,21.80
2022-08-17T07:33:26.671Z,21.99
2022-08-17T07:34:26.693Z,21.98
2022-08-17T07:35:26.648Z,21.91
2022-08-17T07:36:30.126Z,21.99
2022-08-17T07:37:26.627Z,22.00
2022-08-17T07:38:27.142Z,21.94
2022-08-17T07:39:26.631Z,21.94
2022-08-17T07:40:31.689Z,22.02
2022-08-17T07:41:26.593Z,22.05
2022-08-17T07:42:27.572Z,22.00
2022-08-17T07:43:26.565Z,22.10
2022-08-17T07:44:26.561Z,22.06
2022-08-17T07:45:26.564Z,22.17
2022-08-17T07:46:26.526Z,22.09
2022-08-17T07:47:26.523Z,22.09
2022-08-17T07:48:26.506Z,22.10
2022-08-17T07:49:26.506Z,22.09
2022-08-17T07:50:27.621Z,22.06
2022-08-17T07:51:31.505Z,22.06
2022-08-17T07:52:50.986Z,22.06
2022-08-17T07:53:27.452Z,21.99
2022-08-17T07:54:26.447Z,22.07
2022-08-17T07:55:26.427Z,22.06
2022-08-17T07:56:26.416Z,22.07
2022-08-17T07:57:29.993Z,22.02
2022-08-17T07:58:26.402Z,22.09
2022-08-17T07:59:33.220Z,22.12
2022-08-17T08:00:31.737Z,22.05
2022-08-17T08:01:27.375Z,22.17
2022-08-17T08:02:33.885Z,22.18
2022-08-17T08:03:26.402Z,22.17
2022-08-17T08:04:49.905Z,22.17
2022-08-17T08:05:49.765Z,22.12
2022-08-17T08:06:27.303Z,22.07
2022-08-17T08:07:26.294Z,22.06
2022-08-17T08:08:26.283Z,22.03
2022-08-17T08:09:26.281Z,22.09
2022-08-17T08:10:26.260Z,22.03
2022-08-17T08:11:26.251Z,22.06
2022-08-17T08:12:32.689Z,22.17
2022-08-17T08:13:32.366Z,22.12
2022-08-17T08:14:28.258Z,22.12
2022-08-17T08:15:26.216Z,22.21
2022-08-17T08:16:26.194Z,22.22
2022-08-17T08:17:26.183Z,22.21
2022-08-17T08:18:53.706Z,22.31
2022-08-17T08:19:27.160Z,22.25
2022-08-17T08:20:51.106Z,22.22
2022-08-17T08:21:27.136Z,22.12
2022-08-17T08:22:26.129Z,22.25
2022-08-17T08:23:26.116Z,22.17
2022-08-17T08:24:31.237Z,22.25
2022-08-17T08:25:26.102Z,22.18
2022-08-17T08:26:26.084Z,22.21
2022-08-17T08:27:26.069Z,22.14
2022-08-17T08:28:26.071Z,22.14
2022-08-17T08:29:26.048Z,22.24
2022-08-17T08:30:26.052Z,22.20
2022-08-17T08:31:26.029Z,22.21
2022-08-17T08:32:26.016Z,22.22
2022-08-17T08:33:26.003Z,22.22
2022-08-17T08:34:53.467Z,22.27
2022-08-17T08:35:32.035Z,22.22
2022-08-17T08:37:14.187Z,22.28
2022-08-17T08:37:34.498Z,22.28
2022-08-17T08:38:26.947Z,22.28
2022-08-17T08:39:26.031Z,22.22
2022-08-17T08:40:25.938Z,22.35
2022-08-17T08:41:25.913Z,22.35
2022-08-17T08:42:25.911Z,22.37
2022-08-17T08:43:25.896Z,22.31
2022-08-17T08:45:00.244Z,22.40
2022-08-17T08:45:26.881Z,22.37
2022-08-17T08:46:30.884Z,22.31
2022-08-17T08:47:25.867Z,22.33
2022-08-17T08:48:53.391Z,22.30
2022-08-17T08:49:59.193Z,22.42
2022-08-17T08:50:36.877Z,22.36
2022-08-17T08:51:26.813Z,22.39
2022-08-17T08:52:25.796Z,22.45
2022-08-17T08:53:25.783Z,22.39
2022-08-17T08:54:26.555Z,22.39
2022-08-17T08:55:25.779Z,22.43
2022-08-17T08:56:25.758Z,22.49
2022-08-17T08:57:33.958Z,22.49
2022-08-17T08:58:31.467Z,22.33
2022-08-17T08:59:26.724Z,22.49
2022-08-17T09:00:25.730Z,22.51
2022-08-17T09:01:25.740Z,22.58
2022-08-17T09:02:25.683Z,22.67
2022-08-17T09:03:43.838Z,22.68
2022-08-17T09:04:26.661Z,22.67
2022-08-17T09:05:25.665Z,22.65
2022-08-17T09:06:37.793Z,22.70
2022-08-17T09:07:26.628Z,22.64
2022-08-17T09:08:30.639Z,22.68
2022-08-17T09:09:25.610Z,22.77
2022-08-17T09:10:25.594Z,22.72
2022-08-17T09:11:25.592Z,22.83
2022-08-17T09:12:25.572Z,22.75
2022-08-17T09:13:25.564Z,22.88
2022-08-17T09:14:28.742Z,22.92
2022-08-17T09:15:25.542Z,22.97
2022-08-17T09:16:25.537Z,22.94
2022-08-17T09:17:25.516Z,23.01
2022-08-17T09:19:02.256Z,23.01
2022-08-17T09:19:31.516Z,23.04
2022-08-17T09:20:28.067Z,23.10
2022-08-17T09:21:25.484Z,23.04
2022-08-17T09:22:25.464Z,23.04
2022-08-17T09:23:25.457Z,23.05
2022-08-17T09:24:25.439Z,23.15
2022-08-17T09:25:25.432Z,23.22
2022-08-17T09:26:25.440Z,23.27
2022-08-17T09:27:25.408Z,23.33
2022-08-17T09:28:25.395Z,23.43
2022-08-17T09:29:25.400Z,23.51
2022-08-17T09:30:30.400Z,23.51
2022-08-17T09:31:27.703Z,23.72
2022-08-17T09:32:25.351Z,23.69
2022-08-17T09:33:25.342Z,23.68
2022-08-17T09:34:32.075Z,23.73
2022-08-17T09:35:32.937Z,23.68
2022-08-17T09:36:26.321Z,23.80
2022-08-17T09:37:25.323Z,23.84
2022-08-17T09:38:28.109Z,23.83
2022-08-17T09:39:26.353Z,23.85
2022-08-17T09:40:25.269Z,23.98
2022-08-17T09:41:30.370Z,24.34
2022-08-17T09:42:25.244Z,24.43
2022-08-17T09:43:25.241Z,24.53
2022-08-17T09:44:25.224Z,24.53
2022-08-17T09:45:25.213Z,24.53
2022-08-17T09:46:25.211Z,24.60
2022-08-17T09:47:25.188Z,24.64
2022-08-17T09:48:25.177Z,24.61
2022-08-17T09:49:25.465Z,24.65
2022-08-17T09:51:03.184Z,24.62
2022-08-17T09:51:26.158Z,24.62
2022-08-17T09:52:30.155Z,24.64
2022-08-17T09:53:25.125Z,24.60
2022-08-17T09:54:38.635Z,24.49
2022-08-17T09:55:26.101Z,24.52
2022-08-17T09:56:25.097Z,24.46
2022-08-17T09:57:32.671Z,24.45
2022-08-17T09:58:29.068Z,24.47
2022-08-17T09:59:25.057Z,24.52
2022-08-17T10:00:25.062Z,24.53
2022-08-17T10:01:25.148Z,24.37
2022-08-17T10:02:25.023Z,24.39
2022-08-17T10:03:30.034Z,24.20
2022-08-17T10:04:29.465Z,24.27
2022-08-17T10:05:24.995Z,24.22
2022-08-17T10:06:24.986Z,24.15
2022-08-17T10:07:25.028Z,24.24
2022-08-17T10:08:24.955Z,24.30
2022-08-17T10:09:24.945Z,24.35
2022-08-17T10:10:24.935Z,24.31
2022-08-17T10:11:33.815Z,24.27
2022-08-17T10:12:30.191Z,24.43
2022-08-17T10:13:24.900Z,24.39
2022-08-17T10:14:36.455Z,24.31
2022-08-17T10:15:25.878Z,24.27
2022-08-17T10:16:24.875Z,24.24
2022-08-17T10:17:24.857Z,24.08
2022-08-17T10:18:24.900Z,24.03
2022-08-17T10:19:25.830Z,23.85
2022-08-17T10:20:24.818Z,23.79
2022-08-17T10:21:24.828Z,23.91
2022-08-17T10:22:34.850Z,23.79
2022-08-17T10:23:25.786Z,23.66
2022-08-17T10:24:24.774Z,23.65
2022-08-17T10:25:48.595Z,23.50
2022-08-17T10:26:25.760Z,23.42
2022-08-17T10:27:24.787Z,23.43
2022-08-17T10:28:29.568Z,23.38
2022-08-17T10:29:25.725Z,23.32
2022-08-17T10:30:24.710Z,23.38
2022-08-17T10:31:40.057Z,23.35
2022-08-17T10:32:25.682Z,23.28
2022-08-17T10:33:24.672Z,23.28
2022-08-17T10:34:24.679Z,23.28
2022-08-17T10:35:24.686Z,23.23
2022-08-17T10:36:29.673Z,23.27
2022-08-17T10:37:24.677Z,23.23
2022-08-17T10:38:24.856Z,23.31
2022-08-17T10:39:24.606Z,23.35
2022-08-17T10:40:24.713Z,23.32
2022-08-17T10:41:24.603Z,23.38
2022-08-17T10:42:30.834Z,23.38
2022-08-17T10:43:25.559Z,23.40
2022-08-17T10:44:40.233Z,23.40
2022-08-17T10:45:25.559Z,23.48
2022-08-17T10:46:30.324Z,23.42
2022-08-17T10:47:42.295Z,23.39
2022-08-17T10:48:25.507Z,23.39
2022-08-17T10:49:24.503Z,23.42
2022-08-17T10:50:24.482Z,23.38
2022-08-17T10:51:24.489Z,23.46
2022-08-17T10:52:25.045Z,23.33
2022-08-17T10:53:24.448Z,23.39
2022-08-17T10:54:24.449Z,23.38
2022-08-17T10:55:24.427Z,23.32
2022-08-17T10:56:24.416Z,23.28
2022-08-17T10:57:24.415Z,23.33
2022-08-17T10:58:29.419Z,23.39
2022-08-17T10:59:24.387Z,23.39
2022-08-17T11:00:27.621Z,23.40
2022-08-17T11:01:24.403Z,23.42
2022-08-17T11:02:24.360Z,23.40
2022-08-17T11:03:24.341Z,23.47
2022-08-17T11:04:25.071Z,23.53
2022-08-17T11:05:24.319Z,23.46
2022-08-17T11:06:24.303Z,23.60
2022-08-17T11:07:24.303Z,23.50
2022-08-17T11:08:24.307Z,23.53
2022-08-17T11:09:29.295Z,23.75
2022-08-17T11:10:24.271Z,23.63
2022-08-17T11:11:24.250Z,23.66
2022-08-17T11:12:24.253Z,23.61
2022-08-17T11:13:24.229Z,23.69
2022-08-17T11:14:24.212Z,23.76
2022-08-17T11:15:24.204Z,23.90
2022-08-17T11:16:24.194Z,23.88
2022-08-17T11:17:24.195Z,23.90
2022-08-17T11:18:24.212Z,23.98
2022-08-17T11:19:24.159Z,24.13
2022-08-17T11:20:29.194Z,24.25
2022-08-17T11:21:24.136Z,24.40
2022-08-17T11:22:24.139Z,24.49
2022-08-17T11:23:24.128Z,24.65
2022-08-17T11:24:24.117Z,24.77
2022-08-17T11:25:24.094Z,24.87
2022-08-17T11:26:24.079Z,24.98
2022-08-17T11:27:24.092Z,25.06
2022-08-17T11:28:24.058Z,25.17
2022-08-17T11:29:24.663Z,24.99
2022-08-17T11:30:24.037Z,25.09
2022-08-17T11:31:38.747Z,25.21
2022-08-17T11:32:25.022Z,25.23
2022-08-17T11:33:24.037Z,25.32
2022-08-17T11:34:23.991Z,25.52
2022-08-17T11:35:23.982Z,25.54
2022-08-17T11:36:23.973Z,25.65
2022-08-17T11:37:23.972Z,25.80
2022-08-17T11:38:23.951Z,25.82
2022-08-17T11:39:23.938Z,25.87
2022-08-17T11:40:23.925Z,25.88
2022-08-17T11:41:23.917Z,25.97
2022-08-17T11:42:28.934Z,25.99
2022-08-17T11:43:25.673Z,26.09
2022-08-17T11:44:23.880Z,26.07
2022-08-17T11:45:32.263Z,26.12
2022-08-17T11:46:24.861Z,26.23
2022-08-17T11:47:23.860Z,26.18
2022-08-17T11:48:28.334Z,26.18
2022-08-17T11:49:24.827Z,26.35
2022-08-17T11:50:27.679Z,26.28
2022-08-17T11:51:23.807Z,26.25
2022-08-17T11:52:23.809Z,26.23
2022-08-17T11:53:28.812Z,26.39
2022-08-17T11:54:33.329Z,26.21
2022-08-17T11:55:35.466Z,26.09
2022-08-17T11:56:24.768Z,25.99
2022-08-17T11:57:23.760Z,25.99
2022-08-17T11:58:23.731Z,26.05
2022-08-17T11:59:23.757Z,26.07
2022-08-17T12:00:23.711Z,25.99
2022-08-17T12:01:23.697Z,26.12
2022-08-17T12:02:23.686Z,26.01
2022-08-17T12:03:23.776Z,26.02
2022-08-17T12:04:28.799Z,26.17
2022-08-17T12:05:23.657Z,26.30
2022-08-17T12:06:23.647Z,26.23
2022-08-17T12:07:24.644Z,26.15
2022-08-17T12:08:23.622Z,26.17
2022-08-17T12:09:23.612Z,26.10
2022-08-17T12:10:23.600Z,25.98
2022-08-17T12:11:56.359Z,26.06
2022-08-17T12:12:24.587Z,26.05
2022-08-17T12:13:23.569Z,26.01
2022-08-17T12:14:45.075Z,25.97
2022-08-17T12:15:29.571Z,25.94
2022-08-17T12:16:23.535Z,26.06
2022-08-17T12:17:41.613Z,25.98
2022-08-17T12:18:24.518Z,25.82
2022-08-17T12:19:23.506Z,25.77
2022-08-17T12:20:23.497Z,25.67
2022-08-17T12:21:23.486Z,25.80
2022-08-17T12:22:23.480Z,25.76
2022-08-17T12:23:23.467Z,25.79
2022-08-17T12:24:23.449Z,25.76
2022-08-17T12:25:23.443Z,25.76
2022-08-17T12:26:28.451Z,25.79
2022-08-17T12:28:04.109Z,25.79
2022-08-17T12:28:24.406Z,25.73
2022-08-17T12:29:38.398Z,25.67
2022-08-17T12:30:24.384Z,25.64
2022-08-17T12:31:23.376Z,25.65
2022-08-17T12:32:23.363Z,25.61
2022-08-17T12:33:28.055Z,25.64
2022-08-17T12:34:24.339Z,25.55
2022-08-17T12:35:23.336Z,25.58
2022-08-17T12:36:23.318Z,25.52
2022-08-17T12:37:28.331Z,25.55
2022-08-17T12:38:32.447Z,25.55
2022-08-17T12:39:24.946Z,25.54
2022-08-17T12:40:23.277Z,25.54
2022-08-17T12:41:23.267Z,25.60
2022-08-17T12:42:23.253Z,25.52
2022-08-17T12:43:23.253Z,25.55
2022-08-17T12:44:23.236Z,25.47
2022-08-17T12:45:23.223Z,25.50
2022-08-17T12:46:23.209Z,25.45
2022-08-17T12:47:23.391Z,25.60
2022-08-17T12:48:28.225Z,25.52
2022-08-17T12:49:23.182Z,25.35
2022-08-17T12:50:29.679Z,25.39
2022-08-17T12:51:24.160Z,25.42
2022-08-17T12:52:23.142Z,25.27
2022-08-17T12:53:23.142Z,25.33
2022-08-17T12:54:23.138Z,25.28
2022-08-17T12:55:23.111Z,25.30
2022-08-17T12:56:23.104Z,25.35
2022-08-17T12:57:23.113Z,25.24
2022-08-17T12:58:23.095Z,25.23
2022-08-17T12:59:29.929Z,25.33
2022-08-17T13:00:23.062Z,25.38
2022-08-17T13:01:23.103Z,25.36
2022-08-17T13:02:23.050Z,25.42
2022-08-17T13:03:23.047Z,25.50
2022-08-17T13:04:23.011Z,25.55
2022-08-17T13:05:23.001Z,25.57
2022-08-17T13:06:22.993Z,25.57
2022-08-17T13:07:22.985Z,25.65
2022-08-17T13:08:22.994Z,25.70
2022-08-17T13:09:23.010Z,25.69
2022-08-17T13:10:32.875Z,25.79
2022-08-17T13:11:22.938Z,25.83
2022-08-17T13:12:22.924Z,25.82
2022-08-17T13:13:22.935Z,25.90
2022-08-17T13:14:22.906Z,26.05
2022-08-17T13:15:22.896Z,26.06
2022-08-17T13:16:22.881Z,26.21
2022-08-17T13:17:22.869Z,26.29
2022-08-17T13:18:22.865Z,26.23
2022-08-17T13:19:39.979Z,26.26
2022-08-17T13:20:23.834Z,26.25
2022-08-17T13:21:27.851Z,26.25
2022-08-17T13:22:22.818Z,26.21
2022-08-17T13:23:22.813Z,26.36
2022-08-17T13:24:22.803Z,26.32
2022-08-17T13:25:22.787Z,26.39
2022-08-17T13:26:22.771Z,26.54
2022-08-17T13:27:22.760Z,26.51
2022-08-17T13:28:35.631Z,26.25
2022-08-17T13:29:23.750Z,26.28
2022-08-17T13:30:22.748Z,26.33
2022-08-17T13:31:22.738Z,26.35
2022-08-17T13:32:27.728Z,26.29
2022-08-17T13:33:22.693Z,26.33
2022-08-17T13:34:23.890Z,26.44
2022-08-17T13:35:29.685Z,26.51
2022-08-17T13:36:26.388Z,26.55
2022-08-17T13:37:23.220Z,26.50
2022-08-17T13:38:22.640Z,26.62
2022-08-17T13:39:22.641Z,26.66
2022-08-17T13:40:22.623Z,26.76
2022-08-17T13:41:22.629Z,26.77
2022-08-17T13:42:22.631Z,26.88
2022-08-17T13:43:27.608Z,26.89
2022-08-17T13:44:22.596Z,26.94
2022-08-17T13:45:35.506Z,26.92
2022-08-17T13:46:23.555Z,26.84
2022-08-17T13:47:22.544Z,26.85
2022-08-17T13:48:22.533Z,26.88
2022-08-17T13:49:22.532Z,26.87
2022-08-17T13:50:22.513Z,27.00
2022-08-17T13:51:22.507Z,27.03
2022-08-17T13:52:25.635Z,27.02
2022-08-17T13:53:22.477Z,27.03
2022-08-17T13:54:27.508Z,27.13
2022-08-17T13:55:22.461Z,27.02
2022-08-17T13:56:38.830Z,27.07
2022-08-17T13:57:23.435Z,27.09
2022-08-17T13:58:22.424Z,27.10
2022-08-17T13:59:36.289Z,27.14
2022-08-17T14:00:23.413Z,27.19
2022-08-17T14:01:22.430Z,27.27
2022-08-17T14:02:22.382Z,27.19
2022-08-17T14:03:22.400Z,27.24
2022-08-17T14:04:22.364Z,27.24
2022-08-17T14:05:27.421Z,27.14
2022-08-17T14:06:52.448Z,27.25
2022-08-17T14:07:23.326Z,27.18
2022-08-17T14:08:22.323Z,27.28
2022-08-17T14:09:22.317Z,27.29
2022-08-17T14:10:22.309Z,27.29
2022-08-17T14:11:22.292Z,27.24
2022-08-17T14:12:22.275Z,27.29
2022-08-17T14:13:22.265Z,27.34
2022-08-17T14:14:22.253Z,27.31
2022-08-17T14:15:22.251Z,27.29
2022-08-17T14:16:27.255Z,27.27
2022-08-17T14:17:22.219Z,27.17
2022-08-17T14:18:31.204Z,27.12
2022-08-17T14:19:23.198Z,27.07
2022-08-17T14:20:22.201Z,27.10
2022-08-17T14:21:22.178Z,27.17
2022-08-17T14:22:22.167Z,27.21
2022-08-17T14:23:22.155Z,27.21
2022-08-17T14:24:22.146Z,27.18
2022-08-17T14:25:22.403Z,27.25
2022-08-17T14:26:22.124Z,27.24
2022-08-17T14:27:27.136Z,27.36
2022-08-17T14:28:22.102Z,27.43
2022-08-17T14:29:22.092Z,27.37
2022-08-17T14:30:22.092Z,27.34
2022-08-17T14:31:22.082Z,27.37
2022-08-17T14:32:22.070Z,27.50
2022-08-17T14:33:22.049Z,27.47
2022-08-17T14:34:22.040Z,27.32
2022-08-17T14:35:22.035Z,27.36
2022-08-17T14:36:22.021Z,27.36
2022-08-17T14:37:22.006Z,27.41
2022-08-17T14:38:27.017Z,27.41
2022-08-17T14:39:21.990Z,27.44
2022-08-17T14:40:22.028Z,27.41
2022-08-17T14:41:22.454Z,27.40
2022-08-17T14:42:21.951Z,27.47
2022-08-17T14:43:21.936Z,27.46
2022-08-17T14:44:21.939Z,27.44
2022-08-17T14:45:29.830Z,27.43
2022-08-17T14:46:22.904Z,27.49
2022-08-17T14:47:21.892Z,27.50
2022-08-17T14:48:21.888Z,27.47
2022-08-17T14:49:26.906Z,27.57
2022-08-17T14:50:21.863Z,27.59
2022-08-17T14:51:21.849Z,27.63
2022-08-17T14:52:22.030Z,27.66
2022-08-17T14:53:21.828Z,27.65
2022-08-17T14:54:33.041Z,27.67
2022-08-17T14:55:22.817Z,27.65
2022-08-17T14:56:21.797Z,27.67
2022-08-17T14:57:33.013Z,27.77
2022-08-17T14:58:22.771Z,27.78
2022-08-17T14:59:21.761Z,27.77
2022-08-17T15:00:26.786Z,27.78
2022-08-17T15:01:21.801Z,27.75
2022-08-17T15:02:21.733Z,27.81
2022-08-17T15:03:22.732Z,27.70
2022-08-17T15:04:21.705Z,27.75
2022-08-17T15:05:21.703Z,27.77
2022-08-17T15:06:21.685Z,27.82
2022-08-17T15:07:21.671Z,27.77
2022-08-17T15:08:22.694Z,27.77
2022-08-17T15:09:21.661Z,27.85
2022-08-17T15:10:21.655Z,27.94
2022-08-17T15:11:26.648Z,27.92
2022-08-17T15:12:21.618Z,27.99
2022-08-17T15:13:21.609Z,27.99
2022-08-17T15:14:21.596Z,28.02
2022-08-17T15:15:21.603Z,27.96
2022-08-17T15:16:21.609Z,28.03
2022-08-17T15:17:21.560Z,28.02
2022-08-17T15:18:21.554Z,27.96
2022-08-17T15:19:21.538Z,28.00
2022-08-17T15:20:21.538Z,27.99
2022-08-17T15:21:21.518Z,28.06
2022-08-17T15:22:26.534Z,28.00
2022-08-17T15:23:21.496Z,28.02
2022-08-17T15:24:21.485Z,28.12
2022-08-17T15:25:21.487Z,28.12
2022-08-17T15:26:26.009Z,28.15
2022-08-17T15:27:25.787Z,28.15
2022-08-17T15:28:22.442Z,28.18
2022-08-17T15:29:21.434Z,28.14
2022-08-17T15:30:21.434Z,28.15
2022-08-17T15:31:31.969Z,28.09
2022-08-17T15:32:22.397Z,28.21
2022-08-17T15:33:26.407Z,28.21
2022-08-17T15:34:21.376Z,28.25
2022-08-17T15:35:25.164Z,28.31
2022-08-17T15:36:22.376Z,28.21
2022-08-17T15:37:21.410Z,28.25
2022-08-17T15:38:21.333Z,28.22
2022-08-17T15:39:21.320Z,28.24
2022-08-17T15:40:21.323Z,28.19
2022-08-17T15:41:21.299Z,28.29
2022-08-17T15:42:21.289Z,28.21
2022-08-17T15:43:26.672Z,28.22
2022-08-17T15:44:32.405Z,28.17
2022-08-17T15:45:22.378Z,28.21
2022-08-17T15:46:21.244Z,28.24
2022-08-17T15:47:21.232Z,28.07
2022-08-17T15:48:21.234Z,28.25
2022-08-17T15:49:21.211Z,28.12
2022-08-17T15:50:21.213Z,28.17
2022-08-17T15:51:21.188Z,28.12
2022-08-17T15:52:21.183Z,28.17
2022-08-17T15:53:21.168Z,28.18
2022-08-17T15:54:22.779Z,28.12
2022-08-17T15:55:26.180Z,28.14
2022-08-17T15:56:21.134Z,28.17
2022-08-17T15:57:21.122Z,28.15
2022-08-17T15:58:21.114Z,28.14
2022-08-17T15:59:22.098Z,28.03
2022-08-17T16:00:21.110Z,28.11
2022-08-17T16:01:45.449Z,28.07
2022-08-17T16:03:13.486Z,28.14
2022-08-17T16:04:01.452Z,28.14
2022-08-17T16:04:30.383Z,28.09
2022-08-17T16:05:24.240Z,28.14
2022-08-17T16:06:26.048Z,28.15
2022-08-17T16:07:26.411Z,28.12
2022-08-17T16:08:22.003Z,28.11
2022-08-17T16:09:21.051Z,28.09
2022-08-17T16:10:21.114Z,28.11
2022-08-17T16:11:20.974Z,28.14
2022-08-17T16:12:20.977Z,28.11
2022-08-17T16:13:20.955Z,28.19
2022-08-17T16:14:20.944Z,28.12
2022-08-17T16:15:20.940Z,28.18
2022-08-17T16:16:20.932Z,28.19
2022-08-17T16:17:49.380Z,28.17
2022-08-17T16:18:22.072Z,28.11
2022-08-17T16:19:20.885Z,28.07
2022-08-17T16:20:21.139Z,28.04
2022-08-17T16:21:20.861Z,28.11
2022-08-17T16:22:20.858Z,28.09
2022-08-17T16:23:20.841Z,28.09
2022-08-17T16:24:20.830Z,28.06
2022-08-17T16:25:20.994Z,28.11
2022-08-17T16:26:20.807Z,28.09
2022-08-17T16:27:20.798Z,28.04
2022-08-17T16:28:35.592Z,28.07
2022-08-17T16:29:21.772Z,28.07
2022-08-17T16:30:20.776Z,28.07
2022-08-17T16:31:20.757Z,28.04
2022-08-17T16:32:20.748Z,27.99
2022-08-17T16:33:21.742Z,28.02
2022-08-17T16:34:20.732Z,27.97
2022-08-17T16:35:20.925Z,27.94
2022-08-17T16:36:20.698Z,28.02
2022-08-17T16:37:20.686Z,27.99
2022-08-17T16:38:20.677Z,28.03
2022-08-17T16:39:25.711Z,28.00
2022-08-17T16:40:20.665Z,28.02
2022-08-17T16:41:20.645Z,28.03
2022-08-17T16:42:20.645Z,27.94
2022-08-17T16:43:20.621Z,27.93
2022-08-17T16:44:20.614Z,28.00
2022-08-17T16:45:20.610Z,27.88
2022-08-17T16:46:20.635Z,27.90
2022-08-17T16:47:20.580Z,27.92
2022-08-17T16:48:20.569Z,27.82
2022-08-17T16:49:31.568Z,27.87
2022-08-17T16:50:26.576Z,27.87
2022-08-17T16:51:20.541Z,27.87
2022-08-17T16:52:32.645Z,27.85